sensor_id;sensor_type;location;lat;lon;timestamp;pressure;altitude;pressure_sealevel;temperature;humidity
44144;BME280;71749;51.920;4.492;2024-02-16T00:00:27;67601.50;;;15.73;100.00
44144;BME280;71749;51.920;4.492;2024-02-16T00:03:13;67597.34;;;15.74;100.00
44144;BME280;71749;51.920;4.492;2024-02-16T00:05:58;67599.28;;;15.71;100.00
44144;BME280;71749;51.920;4.492;2024-02-16T00:08:44;67600.16;;;15.77;100.00
44144;BME280;71749;51.920;4.492;2024-02-16T00:11:29;67596.63;;;15.71;100.00
44144;BME280;71749;51.920;4.492;2024-02-16T00:14:15;67594.22;;;15.67;100.00
44144;BME280;71749;51.920;4.492;2024-02-16T00:17:00;67595.34;;;15.68;100.00
44144;BME280;71749;51.920;4.492;2024-02-16T00:19:45;67591.03;;;15.66;100.00
44144;BME280;71749;51.920;4.492;2024-02-16T00:22:31;67595.50;;;15.70;100.00
44144;BME280;71749;51.920;4.492;2024-02-16T00:25:16;67586.53;;;15.62;100.00
44144;BME280;71749;51.920;4.492;2024-02-16T00:28:02;67582.75;;;15.61;100.00
44144;BME280;71749;51.920;4.492;2024-02-16T00:30:48;67591.41;;;15.64;100.00
44144;BME280;71749;51.920;4.492;2024-02-16T00:33:34;67590.47;;;15.66;100.00
44144;BME280;71749;51.920;4.492;2024-02-16T00:36:20;67598.31;;;15.73;100.00
44144;BME280;71749;51.920;4.492;2024-02-16T00:39:05;67585.97;;;15.62;100.00
44144;BME280;71749;51.920;4.492;2024-02-16T00:41:50;67586.53;;;15.62;100.00
44144;BME280;71749;51.920;4.492;2024-02-16T00:44:35;67582.88;;;15.54;100.00
44144;BME280;71749;51.920;4.492;2024-02-16T00:47:21;67577.59;;;15.54;100.00
44144;BME280;71749;51.920;4.492;2024-02-16T00:50:08;67573.06;;;15.50;100.00
44144;BME280;71749;51.920;4.492;2024-02-16T00:52:54;67567.47;;;15.45;100.00
44144;BME280;71749;51.920;4.492;2024-02-16T00:55:39;67551.25;;;15.30;100.00
44144;BME280;71749;51.920;4.492;2024-02-16T00:58:27;67574.19;;;15.51;100.00
44144;BME280;71749;51.920;4.492;2024-02-16T01:01:14;67571.22;;;15.46;100.00
44144;BME280;71749;51.920;4.492;2024-02-16T01:03:59;67535.31;;;15.21;100.00
44144;BME280;71749;51.920;4.492;2024-02-16T01:06:45;67559.47;;;15.35;100.00
44144;BME280;71749;51.920;4.492;2024-02-16T01:09:31;67552.91;;;15.32;100.00
44144;BME280;71749;51.920;4.492;2024-02-16T01:12:16;67566.34;;;15.44;100.00
44144;BME280;71749;51.920;4.492;2024-02-16T01:15:02;67554.03;;;15.33;100.00
44144;BME280;71749;51.920;4.492;2024-02-16T01:17:47;67549.56;;;15.29;100.00
44144;BME280;71749;51.920;4.492;2024-02-16T01:20:33;67562.25;;;15.38;100.00
44144;BME280;71749;51.920;4.492;2024-02-16T01:23:18;67571.41;;;15.48;100.00
44144;BME280;71749;51.920;4.492;2024-02-16T01:26:04;67533.88;;;15.15;97.27
44144;BME280;71749;51.920;4.492;2024-02-16T01:28:49;67525.16;;;15.02;99.74
44144;BME280;71749;51.920;4.492;2024-02-16T01:31:35;67544.19;;;15.19;100.00
44144;BME280;71749;51.920;4.492;2024-02-16T01:34:22;67555.16;;;15.34;100.00
44144;BME280;71749;51.920;4.492;2024-02-16T01:37:07;67545.09;;;15.25;100.00
44144;BME280;71749;51.920;4.492;2024-02-16T01:39:52;67550.69;;;15.30;100.00
44144;BME280;71749;51.920;4.492;2024-02-16T01:42:38;67557.97;;;15.36;100.00
44144;BME280;71749;51.920;4.492;2024-02-16T01:45:23;67571.97;;;15.49;100.00
44144;BME280;71749;51.920;4.492;2024-02-16T01:48:09;67579.25;;;15.56;100.00
44144;BME280;71749;51.920;4.492;2024-02-16T01:50:54;67577.59;;;15.54;100.00
44144;BME280;71749;51.920;4.492;2024-02-16T01:53:40;67571.19;;;15.53;100.00
44144;BME280;71749;51.920;4.492;2024-02-16T01:56:25;67574.19;;;15.51;100.00
44144;BME280;71749;51.920;4.492;2024-02-16T01:59:11;67571.41;;;15.48;100.00
44144;BME280;71749;51.920;4.492;2024-02-16T02:01:56;67559.78;;;15.40;100.00
44144;BME280;71749;51.920;4.492;2024-02-16T02:04:42;67553.88;;;15.30;100.00
44144;BME280;71749;51.920;4.492;2024-02-16T02:07:28;67553.88;;;15.30;100.00
44144;BME280;71749;51.920;4.492;2024-02-16T02:10:13;67559.47;;;15.35;100.00
44144;BME280;71749;51.920;4.492;2024-02-16T02:12:58;67547.72;;;15.25;100.00
44144;BME280;71749;51.920;4.492;2024-02-16T02:15:45;67545.47;;;15.23;100.00
44144;BME280;71749;51.920;4.492;2024-02-16T02:18:30;67535.00;;;15.16;100.00
44144;BME280;71749;51.920;4.492;2024-02-16T02:21:16;67529.06;;;15.05;100.00
44144;BME280;71749;51.920;4.492;2024-02-16T02:24:03;67529.97;;;15.11;100.00
44144;BME280;71749;51.920;4.492;2024-02-16T02:26:48;67532.19;;;15.13;100.00
44144;BME280;71749;51.920;4.492;2024-02-16T02:29:33;67539.47;;;15.20;100.00
44144;BME280;71749;51.920;4.492;2024-02-16T02:32:19;67539.88;;;15.18;100.00
44144;BME280;71749;51.920;4.492;2024-02-16T02:35:05;67537.63;;;15.16;100.00
44144;BME280;71749;51.920;4.492;2024-02-16T02:37:51;67513.72;;;14.96;99.52
44144;BME280;71749;51.920;4.492;2024-02-16T02:40:36;67531.09;;;15.12;100.00
44144;BME280;71749;51.920;4.492;2024-02-16T02:43:22;67537.63;;;15.16;100.00
44144;BME280;71749;51.920;4.492;2024-02-16T02:46:08;67545.63;;;15.25;100.00
44144;BME280;71749;51.920;4.492;2024-02-16T02:48:53;67533.88;;;15.15;100.00
44144;BME280;71749;51.920;4.492;2024-02-16T02:51:39;67519.72;;;14.99;99.92
44144;BME280;71749;51.920;4.492;2024-02-16T02:54:24;67528.13;;;15.07;99.78
44144;BME280;71749;51.920;4.492;2024-02-16T02:57:09;67521.97;;;15.01;99.79
44144;BME280;71749;51.920;4.492;2024-02-16T03:00:03;67507.00;;;14.90;100.00
44144;BME280;71749;51.920;4.492;2024-02-16T03:02:49;67534.66;;;15.10;100.00
44144;BME280;71749;51.920;4.492;2024-02-16T03:05:34;67540.59;;;15.21;100.00
44144;BME280;71749;51.920;4.492;2024-02-16T03:08:19;67534.28;;;15.13;100.00
44144;BME280;71749;51.920;4.492;2024-02-16T03:11:05;67530.19;;;15.06;98.77
44144;BME280;71749;51.920;4.492;2024-02-16T03:13:50;67496.53;;;14.83;100.00
44144;BME280;71749;51.920;4.492;2024-02-16T03:16:35;67504.75;;;14.88;99.59
44144;BME280;71749;51.920;4.492;2024-02-16T03:19:21;67515.25;;;14.95;100.00
44144;BME280;71749;51.920;4.492;2024-02-16T03:22:07;67513.00;;;14.93;100.00
44144;BME280;71749;51.920;4.492;2024-02-16T03:24:52;67514.44;;;14.99;100.00
44144;BME280;71749;51.920;4.492;2024-02-16T03:27:37;67522.13;;;15.04;99.54
44144;BME280;71749;51.920;4.492;2024-02-16T03:30:22;67514.84;;;14.97;100.00
44144;BME280;71749;51.920;4.492;2024-02-16T03:33:08;67521.00;;;15.03;100.00
44144;BME280;71749;51.920;4.492;2024-02-16T03:35:53;67523.78;;;15.05;100.00
44144;BME280;71749;51.920;4.492;2024-02-16T03:38:41;67520.03;;;15.04;100.00
44144;BME280;71749;51.920;4.492;2024-02-16T03:41:26;67507.00;;;14.90;97.56
44144;BME280;71749;51.920;4.492;2024-02-16T03:44:11;67500.13;;;14.82;98.01
44144;BME280;71749;51.920;4.492;2024-02-16T03:46:57;67512.59;;;14.95;99.47
44144;BME280;71749;51.920;4.492;2024-02-16T03:49:42;67522.50;;;15.02;100.00
44144;BME280;71749;51.920;4.492;2024-02-16T03:52:27;67524.91;;;15.06;100.00
44144;BME280;71749;51.920;4.492;2024-02-16T03:55:13;67524.19;;;15.03;99.22
44144;BME280;71749;51.920;4.492;2024-02-16T03:57:59;67522.69;;;15.04;99.33
44144;BME280;71749;51.920;4.492;2024-02-16T04:00:44;67520.44;;;15.02;99.52
44144;BME280;71749;51.920;4.492;2024-02-16T04:03:30;67527.56;;;15.06;99.48
44144;BME280;71749;51.920;4.492;2024-02-16T04:06:15;67529.78;;;15.08;99.64
44144;BME280;71749;51.920;4.492;2024-02-16T04:09:00;67522.13;;;15.04;100.00
44144;BME280;71749;51.920;4.492;2024-02-16T04:11:46;67518.19;;;15.00;100.00
44144;BME280;71749;51.920;4.492;2024-02-16T04:14:32;67524.50;;;15.08;99.53
44144;BME280;71749;51.920;4.492;2024-02-16T04:17:18;67510.91;;;14.94;98.82
44144;BME280;71749;51.920;4.492;2024-02-16T04:20:07;67518.19;;;15.00;99.64
44144;BME280;71749;51.920;4.492;2024-02-16T04:22:54;67506.22;;;14.94;99.62
44144;BME280;71749;51.920;4.492;2024-02-16T04:25:39;67516.34;;;14.96;99.53
44144;BME280;71749;51.920;4.492;2024-02-16T04:28:24;67507.97;;;14.89;100.00
44144;BME280;71749;51.920;4.492;2024-02-16T04:31:10;67521.97;;;15.01;99.96
44144;BME280;71749;51.920;4.492;2024-02-16T04:33:55;67501.41;;;14.85;100.00
44144;BME280;71749;51.920;4.492;2024-02-16T04:36:41;67510.75;;;14.91;99.93
44144;BME280;71749;51.920;4.492;2024-02-16T04:39:26;67513.38;;;14.91;100.00
44144;BME280;71749;51.920;4.492;2024-02-16T04:42:11;67518.03;;;14.98;99.52
44144;BME280;71749;51.920;4.492;2024-02-16T04:44:56;67506.28;;;14.87;100.00
44144;BME280;71749;51.920;4.492;2024-02-16T04:47:42;67531.47;;;15.10;100.00
44144;BME280;71749;51.920;4.492;2024-02-16T04:50:27;67518.59;;;14.98;100.00
44144;BME280;71749;51.920;4.492;2024-02-16T04:53:12;67527.16;;;15.08;100.00
44144;BME280;71749;51.920;4.492;2024-02-16T04:55:58;67524.59;;;15.01;100.00
44144;BME280;71749;51.920;4.492;2024-02-16T04:58:43;67509.81;;;14.93;100.00
44144;BME280;71749;51.920;4.492;2024-02-16T05:01:28;67518.59;;;14.98;100.00
44144;BME280;71749;51.920;4.492;2024-02-16T05:04:14;67502.19;;;14.81;100.00
44144;BME280;71749;51.920;4.492;2024-02-16T05:07:02;67510.34;;;14.93;100.00
44144;BME280;71749;51.920;4.492;2024-02-16T05:09:48;67505.31;;;14.89;100.00
44144;BME280;71749;51.920;4.492;2024-02-16T05:12:34;67514.84;;;14.97;100.00
44144;BME280;71749;51.920;4.492;2024-02-16T05:15:19;67527.56;;;15.06;100.00
44144;BME280;71749;51.920;4.492;2024-02-16T05:18:04;67514.69;;;14.95;100.00
44144;BME280;71749;51.920;4.492;2024-02-16T05:20:50;67507.97;;;14.89;100.00
44144;BME280;71749;51.920;4.492;2024-02-16T05:23:36;67505.31;;;14.89;100.00
44144;BME280;71749;51.920;4.492;2024-02-16T05:26:21;67515.97;;;14.98;100.00
44144;BME280;71749;51.920;4.492;2024-02-16T05:29:07;67515.25;;;14.95;100.00
44144;BME280;71749;51.920;4.492;2024-02-16T05:31:52;67523.78;;;15.05;100.00
44144;BME280;71749;51.920;4.492;2024-02-16T05:34:38;67525.63;;;15.09;100.00
44144;BME280;71749;51.920;4.492;2024-02-16T05:37:25;67513.88;;;14.99;100.00
44144;BME280;71749;51.920;4.492;2024-02-16T05:40:11;67516.19;;;14.94;100.00
44144;BME280;71749;51.920;4.492;2024-02-16T05:43:15;67528.84;;;15.10;100.00
44144;BME280;71749;51.920;4.492;2024-02-16T05:46:02;67520.66;;;14.98;100.00
44144;BME280;71749;51.920;4.492;2024-02-16T05:48:47;67495.81;;;14.80;100.00
44144;BME280;71749;51.920;4.492;2024-02-16T05:51:36;67510.34;;;14.93;100.00
44144;BME280;71749;51.920;4.492;2024-02-16T05:54:22;67521.00;;;15.03;100.00
44144;BME280;71749;51.920;4.492;2024-02-16T05:57:07;67527.72;;;15.09;100.00
44144;BME280;71749;51.920;4.492;2024-02-16T05:59:54;67536.91;;;15.13;100.00
44144;BME280;71749;51.920;4.492;2024-02-16T06:02:41;67532.03;;;15.10;100.00
44144;BME280;71749;51.920;4.492;2024-02-16T06:05:27;67542.50;;;15.18;100.00
44144;BME280;71749;51.920;4.492;2024-02-16T06:08:13;67533.31;;;15.14;100.00
44144;BME280;71749;51.920;4.492;2024-02-16T06:10:58;67533.72;;;15.12;100.00
44144;BME280;71749;51.920;4.492;2024-02-16T06:13:43;67522.50;;;15.02;100.00
44144;BME280;71749;51.920;4.492;2024-02-16T06:16:29;67502.53;;;14.86;100.00
44144;BME280;71749;51.920;4.492;2024-02-16T06:19:14;67526.44;;;15.05;100.00
44144;BME280;71749;51.920;4.492;2024-02-16T06:21:59;67521.00;;;15.03;100.00
44144;BME280;71749;51.920;4.492;2024-02-16T06:24:45;67513.00;;;14.93;100.00
44144;BME280;71749;51.920;4.492;2024-02-16T06:27:31;67525.72;;;15.02;100.00
44144;BME280;71749;51.920;4.492;2024-02-16T06:30:18;67537.06;;;15.15;100.00
44144;BME280;71749;51.920;4.492;2024-02-16T06:33:03;67521.56;;;15.03;100.00
44144;BME280;71749;51.920;4.492;2024-02-16T06:35:48;67538.91;;;15.19;100.00
44144;BME280;71749;51.920;4.492;2024-02-16T06:38:37;67532.44;;;15.08;100.00
44144;BME280;71749;51.920;4.492;2024-02-16T06:41:22;67526.59;;;15.08;100.00
44144;BME280;71749;51.920;4.492;2024-02-16T06:44:08;67519.16;;;14.99;100.00
44144;BME280;71749;51.920;4.492;2024-02-16T06:49:37;67528.84;;;15.10;100.00
44144;BME280;71749;51.920;4.492;2024-02-16T06:52:22;67513.47;;;15.01;100.00
44144;BME280;71749;51.920;4.492;2024-02-16T06:55:08;67536.13;;;15.17;100.00
44144;BME280;71749;51.920;4.492;2024-02-16T06:57:54;67535.00;;;15.16;100.00
44144;BME280;71749;51.920;4.492;2024-02-16T07:00:39;67529.63;;;15.06;100.00
44144;BME280;71749;51.920;4.492;2024-02-16T07:03:27;67543.22;;;15.21;100.00
44144;BME280;71749;51.920;4.492;2024-02-16T07:06:13;67537.06;;;15.15;100.00
44144;BME280;71749;51.920;4.492;2024-02-16T07:08:59;67530.91;;;15.09;100.00
44144;BME280;71749;51.920;4.492;2024-02-16T07:11:44;67548.81;;;15.26;100.00
44144;BME280;71749;51.920;4.492;2024-02-16T07:14:35;67523.78;;;15.05;100.00
44144;BME280;71749;51.920;4.492;2024-02-16T07:17:21;67510.34;;;14.93;100.00
44144;BME280;71749;51.920;4.492;2024-02-16T07:20:06;67529.41;;;15.10;100.00
44144;BME280;71749;51.920;4.492;2024-02-16T07:22:52;67543.97;;;15.24;100.00
44144;BME280;71749;51.920;4.492;2024-02-16T07:25:37;67549.56;;;15.29;100.00
44144;BME280;71749;51.920;4.492;2024-02-16T07:28:23;67553.88;;;15.30;100.00
44144;BME280;71749;51.920;4.492;2024-02-16T07:31:09;67556.66;;;15.33;100.00
44144;BME280;71749;51.920;4.492;2024-02-16T07:33:56;67522.50;;;15.02;100.00
44144;BME280;71749;51.920;4.492;2024-02-16T07:36:41;67523.25;;;15.05;100.00
44144;BME280;71749;51.920;4.492;2024-02-16T07:39:27;67519.72;;;14.99;100.00
44144;BME280;71749;51.920;4.492;2024-02-16T07:42:12;67532.75;;;15.13;100.00
44144;BME280;71749;51.920;4.492;2024-02-16T07:44:58;67518.19;;;15.00;100.00
44144;BME280;71749;51.920;4.492;2024-02-16T07:47:43;67529.41;;;15.10;100.00
44144;BME280;71749;51.920;4.492;2024-02-16T07:50:29;67545.63;;;15.25;100.00
44144;BME280;71749;51.920;4.492;2024-02-16T07:53:14;67552.59;;;15.27;100.00
44144;BME280;71749;51.920;4.492;2024-02-16T07:56:00;67555.72;;;15.34;100.00
44144;BME280;71749;51.920;4.492;2024-02-16T07:58:48;67560.03;;;15.36;100.00
44144;BME280;71749;51.920;4.492;2024-02-16T08:01:33;67552.34;;;15.31;100.00
44144;BME280;71749;51.920;4.492;2024-02-16T08:04:19;67564.34;;;15.37;100.00
44144;BME280;71749;51.920;4.492;2024-02-16T08:07:04;67577.59;;;15.54;100.00
44144;BME280;71749;51.920;4.492;2024-02-16T08:09:50;67558.09;;;15.39;100.00
44144;BME280;71749;51.920;4.492;2024-02-16T08:12:35;67576.84;;;15.51;100.00
44144;BME280;71749;51.920;4.492;2024-02-16T08:15:21;67571.53;;;15.51;100.00
44144;BME280;71749;51.920;4.492;2024-02-16T08:18:10;67575.91;;;15.52;100.00
44144;BME280;71749;51.920;4.492;2024-02-16T08:20:57;67584.88;;;15.61;100.00
44144;BME280;71749;51.920;4.492;2024-02-16T08:23:42;67580.03;;;15.51;100.00
44144;BME280;71749;51.920;4.492;2024-02-16T08:26:27;67566.75;;;15.42;100.00
44144;BME280;71749;51.920;4.492;2024-02-16T08:29:13;67573.06;;;15.50;100.00
44144;BME280;71749;51.920;4.492;2024-02-16T08:31:58;67595.34;;;15.68;100.00
44144;BME280;71749;51.920;4.492;2024-02-16T08:34:43;67591.41;;;15.64;100.00
44144;BME280;71749;51.920;4.492;2024-02-16T08:37:29;67598.16;;;15.70;100.00
44144;BME280;71749;51.920;4.492;2024-02-16T08:40:15;67568.97;;;15.44;100.00
44144;BME280;71749;51.920;4.492;2024-02-16T08:43:01;67604.88;;;15.76;100.00
44144;BME280;71749;51.920;4.492;2024-02-16T08:45:48;67604.69;;;15.74;100.00
44144;BME280;71749;51.920;4.492;2024-02-16T08:48:34;67599.59;;;15.76;100.00
44144;BME280;71749;51.920;4.492;2024-02-16T08:51:20;67606.38;;;15.75;100.00
44144;BME280;71749;51.920;4.492;2024-02-16T08:54:05;67619.19;;;15.94;100.00
44144;BME280;71749;51.920;4.492;2024-02-16T08:56:55;67630.81;;;16.02;100.00
44144;BME280;71749;51.920;4.492;2024-02-16T08:59:40;67641.44;;;16.12;100.00
44144;BME280;71749;51.920;4.492;2024-02-16T09:02:26;67629.13;;;16.01;100.00
44144;BME280;71749;51.920;4.492;2024-02-16T09:05:11;67636.25;;;16.05;100.00
44144;BME280;71749;51.920;4.492;2024-02-16T09:07:56;67600.72;;;15.77;100.00
44144;BME280;71749;51.920;4.492;2024-02-16T09:10:42;67613.41;;;15.86;100.00
44144;BME280;71749;51.920;4.492;2024-02-16T09:13:27;67626.00;;;15.93;100.00
44144;BME280;71749;51.920;4.492;2024-02-16T09:16:18;67616.22;;;15.89;100.00
44144;BME280;71749;51.920;4.492;2024-02-16T09:19:07;67616.22;;;15.89;100.00
44144;BME280;71749;51.920;4.492;2024-02-16T09:21:52;67611.97;;;15.80;100.00
44144;BME280;71749;51.920;4.492;2024-02-16T09:24:42;67612.72;;;15.83;100.00
44144;BME280;71749;51.920;4.492;2024-02-16T09:27:32;67604.88;;;15.76;100.00
44144;BME280;71749;51.920;4.492;2024-02-16T09:30:17;67602.22;;;15.76;100.00
44144;BME280;71749;51.920;4.492;2024-02-16T09:33:02;67611.19;;;15.84;100.00
44144;BME280;71749;51.920;4.492;2024-02-16T09:35:48;67578.28;;;15.57;100.00
44144;BME280;71749;51.920;4.492;2024-02-16T09:38:33;67579.81;;;15.56;100.00
44144;BME280;71749;51.920;4.492;2024-02-16T09:41:19;67569.53;;;15.44;100.00
44144;BME280;71749;51.920;4.492;2024-02-16T09:44:06;67557.97;;;15.36;100.00
44144;BME280;71749;51.920;4.492;2024-02-16T09:46:53;67542.84;;;15.23;100.00
44144;BME280;71749;51.920;4.492;2024-02-16T09:49:38;67546.03;;;15.23;100.00
44144;BME280;71749;51.920;4.492;2024-02-16T09:52:26;67538.91;;;15.19;100.00
44144;BME280;71749;51.920;4.492;2024-02-16T09:55:12;67518.44;;;14.96;100.00
44144;BME280;71749;51.920;4.492;2024-02-16T09:57:59;67478.22;;;14.69;100.00
44144;BME280;71749;51.920;4.492;2024-02-16T10:00:51;67499.00;;;14.81;100.00
44144;BME280;71749;51.920;4.492;2024-02-16T10:03:43;67478.47;;;14.64;100.00
44144;BME280;71749;51.920;4.492;2024-02-16T10:06:29;67487.25;;;14.70;100.00
44144;BME280;71749;51.920;4.492;2024-02-16T10:09:28;67484.75;;;14.73;100.00
44144;BME280;71749;51.920;4.492;2024-02-16T10:12:20;67455.91;;;14.42;100.00
44144;BME280;71749;51.920;4.492;2024-02-16T10:15:06;67457.75;;;14.46;100.00
44144;BME280;71749;51.920;4.492;2024-02-16T10:18:05;67458.88;;;14.47;100.00
44144;BME280;71749;51.920;4.492;2024-02-16T10:20:51;67463.91;;;14.51;100.00
44144;BME280;71749;51.920;4.492;2024-02-16T10:23:37;67444.28;;;14.34;100.00
44144;BME280;71749;51.920;4.492;2024-02-16T10:26:26;67443.16;;;14.32;100.00
44144;BME280;71749;51.920;4.492;2024-02-16T10:29:12;67446.53;;;14.36;100.00
44144;BME280;71749;51.920;4.492;2024-02-16T10:31:59;67451.97;;;14.38;100.00
44144;BME280;71749;51.920;4.492;2024-02-16T10:34:45;67467.50;;;14.50;100.00
44144;BME280;71749;51.920;4.492;2024-02-16T10:37:32;67472.69;;;14.57;100.00
44144;BME280;71749;51.920;4.492;2024-02-16T10:40:19;67468.94;;;14.56;100.00
44144;BME280;71749;51.920;4.492;2024-02-16T10:43:06;67473.41;;;14.60;100.00
44144;BME280;71749;51.920;4.492;2024-02-16T10:45:52;67483.50;;;14.69;100.00
44144;BME280;71749;51.920;4.492;2024-02-16T10:48:38;67484.06;;;14.69;100.00
44144;BME280;71749;51.920;4.492;2024-02-16T10:51:29;67479.03;;;14.65;100.00
44144;BME280;71749;51.920;4.492;2024-02-16T10:54:18;67503.09;;;14.87;100.00
44144;BME280;71749;51.920;4.492;2024-02-16T10:57:11;67500.28;;;14.84;100.00
44144;BME280;71749;51.920;4.492;2024-02-16T10:59:56;67485.75;;;14.71;100.00
44144;BME280;71749;51.920;4.492;2024-02-16T11:02:58;67498.06;;;14.82;100.00
44144;BME280;71749;51.920;4.492;2024-02-16T11:05:46;67496.94;;;14.81;100.00
44144;BME280;71749;51.920;4.492;2024-02-16T11:08:37;67491.72;;;14.74;100.00
44144;BME280;71749;51.920;4.492;2024-02-16T11:11:25;67482.94;;;14.68;100.00
44144;BME280;71749;51.920;4.492;2024-02-16T11:14:15;67467.81;;;14.55;100.00
44144;BME280;71749;51.920;4.492;2024-02-16T11:19:59;67461.50;;;14.47;100.00
44144;BME280;71749;51.920;4.492;2024-02-16T11:22:45;67463.34;;;14.51;100.00
44144;BME280;71749;51.920;4.492;2024-02-16T11:25:31;67457.75;;;14.46;100.00
44144;BME280;71749;51.920;4.492;2024-02-16T11:28:18;67460.53;;;14.48;100.00
44144;BME280;71749;51.920;4.492;2024-02-16T11:31:04;67449.34;;;14.38;100.00
44144;BME280;71749;51.920;4.492;2024-02-16T11:33:49;67454.63;;;14.38;100.00
44144;BME280;71749;51.920;4.492;2024-02-16T11:36:36;67471.56;;;14.56;100.00
44144;BME280;71749;51.920;4.492;2024-02-16T11:39:22;67462.63;;;14.48;100.00
44144;BME280;71749;51.920;4.492;2024-02-16T11:42:10;67462.22;;;14.50;100.00
44144;BME280;71749;51.920;4.492;2024-02-16T11:44:56;67477.16;;;14.61;100.00
44144;BME280;71749;51.920;4.492;2024-02-16T11:47:42;67465.97;;;14.51;100.00
44144;BME280;71749;51.920;4.492;2024-02-16T11:50:28;67476.22;;;14.62;100.00
44144;BME280;71749;51.920;4.492;2024-02-16T11:53:16;67467.81;;;14.55;100.00
44144;BME280;71749;51.920;4.492;2024-02-16T11:56:03;67477.16;;;14.61;100.00
44144;BME280;71749;51.920;4.492;2024-02-16T11:58:50;67490.59;;;14.73;100.00
44144;BME280;71749;51.920;4.492;2024-02-16T12:01:35;67493.41;;;14.76;100.00
44144;BME280;71749;51.920;4.492;2024-02-16T12:04:28;67523.06;;;15.02;100.00
44144;BME280;71749;51.920;4.492;2024-02-16T12:07:13;67550.69;;;15.30;100.00
44144;BME280;71749;51.920;4.492;2024-02-16T12:10:01;67545.63;;;15.25;100.00
44144;BME280;71749;51.920;4.492;2024-02-16T12:12:47;67572.69;;;15.52;100.00
44144;BME280;71749;51.920;4.492;2024-02-16T12:15:33;67574.75;;;15.51;100.00
44144;BME280;71749;51.920;4.492;2024-02-16T12:18:25;67588.94;;;15.67;100.00
44144;BME280;71749;51.920;4.492;2024-02-16T12:21:11;67571.97;;;15.49;100.00
44144;BME280;71749;51.920;4.492;2024-02-16T12:23:57;67571.22;;;15.46;100.00
44144;BME280;71749;51.920;4.492;2024-02-16T12:26:42;67563.56;;;15.41;100.00
44144;BME280;71749;51.920;4.492;2024-02-16T12:29:27;67564.50;;;15.40;100.00
44144;BME280;71749;51.920;4.492;2024-02-16T12:32:16;67551.81;;;15.31;100.00
44144;BME280;71749;51.920;4.492;2024-02-16T12:35:04;67544.91;;;15.22;100.00
44144;BME280;71749;51.920;4.492;2024-02-16T12:37:51;67526.03;;;15.07;100.00
44144;BME280;71749;51.920;4.492;2024-02-16T12:40:37;67526.44;;;15.05;100.00
44144;BME280;71749;51.920;4.492;2024-02-16T12:43:22;67528.66;;;15.07;100.00
44144;BME280;71749;51.920;4.492;2024-02-16T12:46:09;67521.56;;;15.03;100.00
44144;BME280;71749;51.920;4.492;2024-02-16T12:48:54;67521.56;;;15.03;100.00
44144;BME280;71749;51.920;4.492;2024-02-16T12:51:40;67526.03;;;15.07;100.00
44144;BME280;71749;51.920;4.492;2024-02-16T12:54:25;67533.88;;;15.15;100.00
44144;BME280;71749;51.920;4.492;2024-02-16T12:57:12;67547.16;;;15.24;100.00
44144;BME280;71749;51.920;4.492;2024-02-16T12:59:58;67526.44;;;15.05;100.00
44144;BME280;71749;51.920;4.492;2024-02-16T13:02:47;67520.84;;;15.00;100.00
44144;BME280;71749;51.920;4.492;2024-02-16T13:05:33;67518.75;;;15.01;100.00
44144;BME280;71749;51.920;4.492;2024-02-16T13:08:19;67501.06;;;14.80;100.00
44144;BME280;71749;51.920;4.492;2024-02-16T13:11:05;67534.19;;;15.20;100.00
44144;BME280;71749;51.920;4.492;2024-02-16T13:13:50;67551.47;;;15.26;100.00
44144;BME280;71749;51.920;4.492;2024-02-16T13:16:36;67549.56;;;15.29;100.00
44144;BME280;71749;51.920;4.492;2024-02-16T13:19:22;67539.63;;;15.22;100.00
44144;BME280;71749;51.920;4.492;2024-02-16T13:22:09;67546.34;;;15.28;100.00
44144;BME280;71749;51.920;4.492;2024-02-16T13:24:55;67574.03;;;15.48;100.00
44144;BME280;71749;51.920;4.492;2024-02-16T13:27:40;67570.44;;;15.50;100.00
44144;BME280;71749;51.920;4.492;2024-02-16T13:30:26;67575.34;;;15.52;100.00
44144;BME280;71749;51.920;4.492;2024-02-16T13:33:13;67585.41;;;15.61;100.00
44144;BME280;71749;51.920;4.492;2024-02-16T13:35:58;67585.41;;;15.61;100.00
44144;BME280;71749;51.920;4.492;2024-02-16T13:38:43;67590.28;;;15.63;100.00
44144;BME280;71749;51.920;4.492;2024-02-16T13:41:30;67582.44;;;15.56;100.00
44144;BME280;71749;51.920;4.492;2024-02-16T13:44:15;67596.47;;;15.69;100.00
44144;BME280;71749;51.920;4.492;2024-02-16T13:47:01;67573.63;;;15.50;100.00
44144;BME280;71749;51.920;4.492;2024-02-16T13:49:47;67607.50;;;15.76;100.00
44144;BME280;71749;51.920;4.492;2024-02-16T13:52:34;67611.19;;;15.84;100.00
44144;BME280;71749;51.920;4.492;2024-02-16T13:55:20;67612.28;;;15.85;100.00
44144;BME280;71749;51.920;4.492;2024-02-16T13:58:05;67610.78;;;15.86;100.00
44144;BME280;71749;51.920;4.492;2024-02-16T14:00:50;67632.47;;;16.04;100.00
44144;BME280;71749;51.920;4.492;2024-02-16T14:03:36;67622.97;;;15.95;100.00
44144;BME280;71749;51.920;4.492;2024-02-16T14:06:22;67632.47;;;16.04;100.00
44144;BME280;71749;51.920;4.492;2024-02-16T14:09:07;67628.00;;;16.00;100.00
44144;BME280;71749;51.920;4.492;2024-02-16T14:12:08;67633.03;;;16.04;100.00
44144;BME280;71749;51.920;4.492;2024-02-16T14:14:53;67632.16;;;15.99;100.00
44144;BME280;71749;51.920;4.492;2024-02-16T14:17:39;67611.50;;;15.89;100.00
44144;BME280;71749;51.920;4.492;2024-02-16T14:20:25;67623.34;;;15.93;100.00
44144;BME280;71749;51.920;4.492;2024-02-16T14:23:10;67607.44;;;15.83;100.00
44144;BME280;71749;51.920;4.492;2024-02-16T14:25:56;67627.69;;;15.95;100.00
44144;BME280;71749;51.920;4.492;2024-02-16T14:28:42;67627.28;;;15.97;100.00
44144;BME280;71749;51.920;4.492;2024-02-16T14:31:27;67625.03;;;15.95;100.00
44144;BME280;71749;51.920;4.492;2024-02-16T14:34:13;67636.41;;;16.07;100.00